Abbeville, South Carolina
Current Conditions -  °F | °C
As of 7:56 PM on Sunday 23 Nov 2014 (Local Time) from KGRD Reporting Station
Light Rain Light Rain  
Wind Chill: 63°   Ceiling: 10000
Heat Index: 63°   Visibility: 10mi
Dew Point: 60°   Wind: 8mph
Humidity: 90%   Direction: 150°SSE
Pressure: 29.73"   Gusts: NA
Location:  34.18°N, 82.38°W
Report Text: KGRD 240056Z AUTO 15007KT 10SM -RA BKN100 OVC110 17/16 A2973 RMK AO2 PK WND 18032/0011 PRESFR SLP065 P0019 T01720156
Loading
Personal Weather Stations






























Interactive Weather Map New forecast layout! Learn more

10-Day Weather Forecast

Advertisements
Track Severe Weather on mobile